Time;durP1;ratioP1;P1;durP2;ratioP2;P2;SDS_P1;SDS_P2;PMS_P1;PMS_P2;Temp;Humidity;BMP_temperature;BMP_pressure;BME280_temperature;BME280_humidity;BME280_pressure;Samples;Min_cycle;Max_cycle;Signal;HPM_P1;HPM_P2
2021/07/31 00:01:06;;;;;;;12.07;8.13;;;;;;;19.82;68.82;97672.50;125506;1096;22803;-81
2021/07/31 00:03:32;;;;;;;12.35;8.60;;;;;;;19.75;69.08;97674.94;125437;1094;22807;-80
2021/07/31 00:06:14;;;;;;;9.90;7.98;;;;;;;19.75;69.05;97677.70;125534;1096;22787;-80
2021/07/31 00:08:42;;;;;;;10.30;7.33;;;;;;;19.76;69.07;97664.69;125479;1096;22945;-80
2021/07/31 00:11:12;;;;;;;11.67;8.27;;;;;;;19.78;68.89;97660.48;125395;1097;24150;-80
2021/07/31 00:13:39;;;;;;;11.43;7.90;;;;;;;19.78;68.95;97666.00;125583;1095;22960;-80
2021/07/31 00:16:06;;;;;;;11.15;7.33;;;;;;;19.80;69.05;97666.48;125536;1096;22791;-80
2021/07/31 00:18:36;;;;;;;10.18;7.50;;;;;;;19.81;68.73;97653.48;125549;1096;26024;-80
2021/07/31 00:21:03;;;;;;;9.15;7.20;;;;;;;19.81;68.86;97661.77;125411;1097;22937;-81
2021/07/31 00:23:29;;;;;;;11.15;7.45;;;;;;;19.81;69.13;97662.56;125637;1096;22804;-80
2021/07/31 00:25:57;;;;;;;11.43;8.03;;;;;;;19.77;69.31;97661.61;125587;1096;22778;-80
2021/07/31 00:28:24;;;;;;;13.90;7.95;;;;;;;19.61;69.28;97654.91;126010;1095;22752;-80
2021/07/31 00:30:52;;;;;;;11.98;8.05;;;;;;;19.44;69.64;97653.77;125658;1096;22807;-80
2021/07/31 00:33:19;;;;;;;10.10;7.93;;;;;;;19.33;70.35;97657.96;126046;1096;26261;-79
2021/07/31 00:35:49;;;;;;;12.10;7.85;;;;;;;19.31;70.44;97649.19;125526;1097;23749;-80
2021/07/31 00:38:16;;;;;;;13.08;7.35;;;;;;;19.30;70.51;97650.31;125510;1096;22770;-80
2021/07/31 00:40:45;;;;;;;12.18;7.58;;;;;;;19.30;70.56;97637.34;125502;1096;25989;-80
2021/07/31 00:43:12;;;;;;;11.63;8.25;;;;;;;19.32;70.83;97642.55;125427;1096;22781;-81
2021/07/31 00:45:42;;;;;;;10.10;7.43;;;;;;;19.34;70.89;97637.52;125926;1096;24606;-80
2021/07/31 00:48:12;;;;;;;10.63;7.60;;;;;;;19.32;71.55;97640.59;125514;1096;27279;-80
2021/07/31 00:50:40;;;;;;;10.35;7.38;;;;;;;19.23;71.27;97637.01;125901;1096;22778;-80
2021/07/31 00:53:08;;;;;;;10.08;7.20;;;;;;;19.16;71.77;97642.19;126005;1096;22823;-80
2021/07/31 00:55:37;;;;;;;11.23;7.70;;;;;;;19.14;71.97;97645.27;125966;1096;22935;-80
2021/07/31 00:58:06;;;;;;;10.58;7.95;;;;;;;19.18;71.97;97650.96;125554;1096;22754;-80
2021/07/31 01:00:39;;;;;;;14.33;8.63;;;;;;;19.20;72.05;97643.16;125543;1095;22774;-80
2021/07/31 01:03:07;;;;;;;14.35;8.85;;;;;;;19.23;72.23;97647.22;125452;1096;22776;-80
2021/07/31 01:05:35;;;;;;;11.63;7.55;;;;;;;19.24;72.23;97643.33;125500;1096;22948;-80
2021/07/31 01:08:03;;;;;;;;;;;;;;;19.18;72.30;97644.64;125431;1096;22803;-80
2021/07/31 01:10:32;;;;;;;12.03;7.88;;;;;;;19.10;72.31;97649.78;125392;1097;21471;-80
2021/07/31 01:13:02;;;;;;;11.55;7.63;;;;;;;19.08;72.43;97648.49;125534;1096;22800;-80
2021/07/31 01:15:33;;;;;;;10.40;8.10;;;;;;;19.05;72.43;97649.13;125546;1096;22804;-80
2021/07/31 01:18:00;;;;;;;11.95;8.13;;;;;;;19.05;72.34;97643.61;125828;1096;22835;-80
2021/07/31 01:20:27;;;;;;;10.35;7.98;;;;;;;19.05;72.59;97644.44;125531;1096;22770;-80
2021/07/31 01:23:01;;;;;;;8.95;7.85;;;;;;;19.07;72.61;97638.58;125456;1097;26264;-80
2021/07/31 01:25:30;;;;;;;9.70;7.18;;;;;;;19.09;72.92;97639.90;125535;1097;22774;-80
2021/07/31 01:27:57;;;;;;;7.88;6.60;;;;;;;19.11;72.77;97632.11;125427;1096;22938;-80
2021/07/31 01:30:24;;;;;;;10.13;7.50;;;;;;;19.18;72.88;97633.59;125421;1096;22807;-80
2021/07/31 01:32:52;;;;;;;10.98;7.58;;;;;;;19.22;72.54;97632.61;125432;1097;22800;-79
2021/07/31 01:35:23;;;;;;;11.75;7.18;;;;;;;19.20;72.47;97642.36;125492;1096;22780;-79
2021/07/31 01:37:50;;;;;;;9.55;7.43;;;;;;;19.12;72.46;97636.50;125439;1096;22780;-80
2021/07/31 01:40:17;;;;;;;9.60;7.00;;;;;;;19.03;72.50;97638.41;125477;1096;26268;-80
2021/07/31 01:42:45;;;;;;;12.35;6.65;;;;;;;19.00;72.54;97639.07;125457;1095;22777;-80
2021/07/31 01:45:13;;;;;;;11.08;6.80;;;;;;;18.97;72.74;97621.19;125458;1096;27358;-80
2021/07/31 01:47:41;;;;;;;10.83;8.03;;;;;;;18.96;72.84;97622.34;125511;1097;22834;-80
2021/07/31 01:50:11;;;;;;;11.43;7.58;;;;;;;18.94;73.16;97615.50;125438;1096;22807;-80
2021/07/31 01:52:45;;;;;;;12.30;8.33;;;;;;;18.90;73.35;97617.28;125414;1096;22761;-80
2021/07/31 01:55:16;;;;;;;10.53;7.00;;;;;;;18.84;73.10;97615.80;125510;1097;22780;-80
2021/07/31 01:57:48;;;;;;;11.78;7.00;;;;;;;18.62;73.12;97627.70;125455;1096;27481;-80
2021/07/31 02:00:18;;;;;;;9.80;7.45;;;;;;;18.37;73.59;97630.02;125480;1096;22800;-80
2021/07/31 02:03:00;;;;;;;12.10;7.65;;;;;;;18.25;74.28;97629.79;125414;1096;22787;-80
2021/07/31 02:05:39;;;;;;;12.45;7.78;;;;;;;18.20;74.85;97626.05;125482;1096;23002;-80
2021/07/31 02:08:08;;;;;;;9.83;6.80;;;;;;;18.20;74.86;97617.78;125565;1096;25884;-80
2021/07/31 02:10:55;;;;;;;8.25;7.13;;;;;;;18.25;75.16;97622.33;125539;1096;22870;-80
2021/07/31 02:13:23;;;;;;;12.43;7.88;;;;;;;18.29;75.14;97612.31;125467;1097;22803;-80
2021/07/31 02:15:51;;;;;;;9.33;8.03;;;;;;;18.36;75.12;97611.84;125539;1097;24318;-80
2021/07/31 02:18:24;;;;;;;10.10;7.85;;;;;;;18.40;75.02;97607.34;125433;1096;22758;-80
2021/07/31 02:20:51;;;;;;;10.33;7.50;;;;;;;18.43;75.54;97587.39;125431;1097;26267;-80
2021/07/31 02:23:39;;;;;;;11.08;6.78;;;;;;;18.45;75.18;97589.83;125426;1097;23752;-79
2021/07/31 02:26:13;;;;;;;10.53;7.48;;;;;;;18.48;75.01;97589.20;125462;1096;24460;-80
2021/07/31 02:28:58;;;;;;;9.50;7.48;;;;;;;18.50;75.29;97575.91;125452;1096;22878;-80
2021/07/31 02:31:26;;;;;;;10.07;7.57;;;;;;;18.55;75.31;97581.28;125379;1096;22831;-80
2021/07/31 02:33:54;;;;;;;11.67;7.60;;;;;;;18.58;75.05;97567.67;125409;1096;22857;-80
2021/07/31 02:36:24;;;;;;;10.70;7.18;;;;;;;18.62;74.82;97581.63;125391;1096;22813;-80
2021/07/31 02:39:09;;;;;;;11.23;7.77;;;;;;;18.63;74.88;97574.99;125473;1097;22773;-80
2021/07/31 02:41:39;;;;;;;10.68;7.55;;;;;;;18.64;74.75;97578.55;125471;1096;22786;-80
2021/07/31 02:44:08;;;;;;;12.48;8.10;;;;;;;18.59;74.93;97583.09;125498;1097;22937;-80
2021/07/31 02:46:35;;;;;;;12.33;7.20;;;;;;;18.51;74.44;97583.06;125448;1097;22950;-80
2021/07/31 02:49:02;;;;;;;9.18;7.30;;;;;;;18.42;74.50;97583.02;125456;1096;25852;-80
2021/07/31 02:51:32;;;;;;;13.25;7.50;;;;;;;18.34;74.86;97584.63;125490;1097;22789;-80
2021/07/31 02:54:22;;;;;;;10.88;6.88;;;;;;;18.28;75.12;97596.90;125315;1096;24420;-80
2021/07/31 02:56:49;;;;;;;9.60;6.70;;;;;;;18.30;75.70;97593.83;125429;1095;29008;-80
2021/07/31 02:59:18;;;;;;;;;;;;;;;18.32;75.52;97586.05;125498;1095;22778;-80
2021/07/31 03:01:46;;;;;;;12.38;8.05;;;;;;;18.33;75.55;97580.23;125464;1097;21470;-80
2021/07/31 03:04:16;;;;;;;10.43;7.90;;;;;;;18.35;75.91;97588.18;125460;1096;27204;-80
2021/07/31 03:06:43;;;;;;;10.58;7.80;;;;;;;18.36;75.90;97592.55;125449;1096;26345;-80
2021/07/31 03:09:12;;;;;;;11.05;7.25;;;;;;;18.39;75.93;97602.95;125450;1095;22834;-80
2021/07/31 03:11:45;;;;;;;12.65;8.00;;;;;;;18.40;76.07;97591.61;125409;1097;22807;-80
2021/07/31 03:14:13;;;;;;;14.18;8.10;;;;;;;18.36;75.68;97584.28;125430;1096;24438;-80
2021/07/31 03:16:41;;;;;;;13.13;7.80;;;;;;;18.35;76.19;97594.50;125447;1096;22827;-80
2021/07/31 03:19:10;;;;;;;11.25;7.68;;;;;;;18.37;76.07;97585.91;125380;1096;25423;-80
2021/07/31 03:21:41;;;;;;;10.50;7.90;;;;;;;18.40;75.86;97597.12;125482;1096;22773;-80
2021/07/31 03:24:19;;;;;;;10.10;7.47;;;;;;;18.42;75.80;97591.30;125436;1096;22813;-80
2021/07/31 03:26:47;;;;;;;17.10;8.50;;;;;;;18.39;75.94;97584.45;125403;1096;22931;-80
2021/07/31 03:29:35;;;;;;;11.60;7.50;;;;;;;18.41;76.46;97589.66;125443;1096;26356;-80
2021/07/31 03:32:03;;;;;;;12.65;8.28;;;;;;;18.43;76.33;97592.91;125480;1094;23058;-79
2021/07/31 03:34:30;;;;;;;11.05;7.23;;;;;;;18.45;75.96;97593.42;125450;1096;22813;-80
2021/07/31 03:36:58;;;;;;;9.53;7.70;;;;;;;18.53;76.00;97591.82;125457;1097;22776;-80
2021/07/31 03:39:29;;;;;;;11.25;7.93;;;;;;;18.63;75.83;97587.95;125396;1097;22854;-80
2021/07/31 03:41:58;;;;;;;12.03;7.90;;;;;;;18.69;75.73;97584.73;125483;1096;22790;-80
2021/07/31 03:44:46;;;;;;;12.20;7.07;;;;;;;18.68;75.51;97588.64;125402;1096;27560;-80
2021/07/31 03:47:13;;;;;;;11.13;6.87;;;;;;;18.55;75.44;97593.11;125398;1096;27211;-79
2021/07/31 03:49:40;;;;;;;11.05;7.33;;;;;;;18.44;75.85;97588.22;125425;1097;22797;-79
2021/07/31 03:52:09;;;;;;;12.37;6.50;;;;;;;18.34;76.24;97592.05;125467;1096;23101;-79
2021/07/31 03:54:37;;;;;;;11.78;7.10;;;;;;;18.38;77.09;97585.60;125413;1096;22845;-79
2021/07/31 03:57:05;;;;;;;10.15;7.05;;;;;;;18.46;77.54;97588.71;125504;1097;22932;-79
2021/07/31 03:59:36;;;;;;;12.23;7.28;;;;;;;18.56;77.50;97582.92;125418;1096;22786;-79
2021/07/31 04:02:09;;;;;;;10.00;8.03;;;;;;;18.66;77.53;97585.39;125503;1096;24466;-79
2021/07/31 04:04:37;;;;;;;10.73;7.67;;;;;;;18.73;77.08;97582.98;125398;1096;27234;-80
2021/07/31 04:07:08;;;;;;;10.88;7.10;;;;;;;18.84;77.33;97582.69;125493;1095;22825;-79
2021/07/31 04:09:56;;;;;;;10.53;7.43;;;;;;;18.96;77.46;97577.36;125411;1096;22780;-79
2021/07/31 04:12:42;;;;;;;11.80;7.65;;;;;;;19.13;76.78;97587.63;125490;1096;22782;-80
2021/07/31 04:15:28;;;;;;;12.17;7.87;;;;;;;19.30;76.39;97586.81;125417;1096;22803;-80
2021/07/31 04:17:55;;;;;;;10.17;7.43;;;;;;;19.41;76.14;97590.91;125462;1097;22832;-80
2021/07/31 04:20:22;;;;;;;10.93;6.65;;;;;;;19.52;76.16;97594.15;125471;1096;22781;-80
2021/07/31 04:23:05;;;;;;;8.95;7.28;;;;;;;19.49;76.89;97589.27;125440;1095;22780;-80
2021/07/31 04:25:43;;;;;;;11.85;6.70;;;;;;;19.40;77.49;97600.31;125414;1096;22817;-80
2021/07/31 04:28:10;;;;;;;10.88;7.20;;;;;;;19.37;77.63;97591.86;125455;1095;22780;-80
2021/07/31 04:30:37;;;;;;;8.73;7.20;;;;;;;19.37;78.10;97586.34;125514;1096;22779;-80
2021/07/31 04:33:18;;;;;;;11.68;7.45;;;;;;;19.45;78.00;97591.06;125470;1096;26404;-80
2021/07/31 04:35:46;;;;;;;10.28;7.30;;;;;;;19.56;77.95;97588.78;125493;1097;27306;-80
2021/07/31 04:38:13;;;;;;;13.35;7.23;;;;;;;19.68;77.56;97591.70;125516;1096;26296;-80
2021/07/31 04:40:40;;;;;;;11.73;7.25;;;;;;;19.79;76.82;97603.27;125506;1096;24421;-80
2021/07/31 04:43:21;;;;;;;11.20;7.85;;;;;;;19.91;76.12;97600.65;125456;1097;22948;-80
2021/07/31 04:45:48;;;;;;;10.78;7.53;;;;;;;19.99;76.27;97593.47;125438;1097;25855;-80
2021/07/31 04:48:15;;;;;;;11.85;7.25;;;;;;;20.00;76.77;97600.63;125531;1096;22766;-80
2021/07/31 04:50:42;;;;;;;12.20;7.28;;;;;;;19.98;76.94;97597.39;125506;1097;23230;-80
2021/07/31 04:53:09;;;;;;;11.10;6.70;;;;;;;19.94;76.80;97597.23;125459;1096;22803;-80
2021/07/31 04:55:36;;;;;;;10.70;7.43;;;;;;;19.95;77.05;97603.57;125472;1096;27207;-80
2021/07/31 04:58:03;;;;;;;8.33;6.53;;;;;;;19.98;76.80;97600.16;125413;1095;22777;-80
2021/07/31 05:00:30;;;;;;;11.90;6.78;;;;;;;20.01;77.18;97605.84;125470;1097;22803;-80
2021/07/31 05:02:56;;;;;;;10.05;6.40;;;;;;;20.01;77.69;97605.00;125554;1096;24426;-80
2021/07/31 05:05:23;;;;;;;8.45;6.60;;;;;;;20.05;78.26;97605.99;125522;1097;22810;-80
2021/07/31 05:07:50;;;;;;;8.53;7.05;;;;;;;20.08;78.50;97611.67;125565;1095;22803;-80
2021/07/31 05:10:17;;;;;;;9.50;6.03;;;;;;;20.18;78.28;97610.50;125411;1097;22777;-80
2021/07/31 05:12:44;;;;;;;10.63;7.00;;;;;;;20.34;78.47;97610.78;125517;1096;24156;-80
2021/07/31 05:15:11;;;;;;;11.90;8.03;;;;;;;20.53;77.74;97612.36;125550;1096;26261;-80
2021/07/31 05:17:38;;;;;;;12.00;7.30;;;;;;;20.73;76.97;97608.06;125691;1096;22848;-80
2021/07/31 05:20:05;;;;;;;9.33;7.07;;;;;;;20.91;76.12;97603.25;125894;1097;24577;-80
2021/07/31 05:22:32;;;;;;;8.75;6.88;;;;;;;21.08;75.13;97597.62;125736;1096;22781;-80
2021/07/31 05:25:14;;;;;;;9.35;7.55;;;;;;;21.24;74.91;97601.41;125704;1096;22813;-80
2021/07/31 05:27:40;;;;;;;9.80;7.07;;;;;;;21.39;74.06;97608.33;125809;1097;22847;-80
2021/07/31 05:30:09;;;;;;;11.87;7.60;;;;;;;21.54;73.79;97615.24;125775;1095;22909;-80
2021/07/31 05:32:36;;;;;;;11.08;7.33;;;;;;;21.65;73.50;97621.19;125875;1097;22777;-80
2021/07/31 05:35:04;;;;;;;11.08;7.88;;;;;;;21.77;73.56;97624.02;125744;1095;26343;-80
2021/07/31 05:37:33;;;;;;;9.40;6.90;;;;;;;21.87;72.74;97621.97;126091;1096;22818;-80
2021/07/31 05:40:02;;;;;;;10.83;7.38;;;;;;;21.93;72.56;97626.97;125836;1097;22780;-80
2021/07/31 05:42:29;;;;;;;15.63;7.73;;;;;;;21.98;72.20;97628.73;125730;1095;22991;-80
2021/07/31 05:45:00;;;;;;;11.25;7.05;;;;;;;22.02;72.38;97626.89;125811;1097;23619;-80
2021/07/31 05:47:28;;;;;;;15.00;7.25;;;;;;;22.09;72.33;97631.89;125859;1096;23422;-80
2021/07/31 05:49:57;;;;;;;9.65;7.65;;;;;;;22.12;72.03;97623.70;125945;1096;22623;-80
2021/07/31 05:52:26;;;;;;;11.77;7.03;;;;;;;22.12;72.05;97620.92;125791;1096;22960;-81
2021/07/31 05:54:53;;;;;;;;;;;;;;;22.13;72.08;97625.33;125883;1097;25578;-81
2021/07/31 05:57:20;;;;;;;12.10;7.60;;;;;;;22.16;72.25;97630.17;125904;1097;21457;-80
2021/07/31 05:59:47;;;;;;;11.35;7.65;;;;;;;22.18;71.45;97633.41;125798;1097;22771;-81
2021/07/31 06:02:15;;;;;;;10.28;7.03;;;;;;;22.21;71.17;97631.13;125908;1097;26252;-81
2021/07/31 06:04:46;;;;;;;10.63;7.43;;;;;;;22.25;71.59;97634.83;125768;1097;23572;-80
2021/07/31 06:07:12;;;;;;;12.98;7.80;;;;;;;22.27;71.28;97629.78;125746;1096;22779;-80
2021/07/31 06:09:42;;;;;;;11.65;7.80;;;;;;;22.30;71.34;97642.97;125859;1096;24441;-80
2021/07/31 06:12:23;;;;;;;14.18;8.28;;;;;;;22.28;71.27;97646.08;125923;1096;24416;-80
2021/07/31 06:14:50;;;;;;;13.10;8.13;;;;;;;22.28;70.86;97651.63;125843;1097;22779;-81
2021/07/31 06:17:18;;;;;;;12.03;8.33;;;;;;;22.28;70.74;97653.60;125790;1096;27326;-80
2021/07/31 06:19:45;;;;;;;11.43;7.68;;;;;;;22.27;71.03;97660.29;125862;1096;22873;-80
2021/07/31 06:22:11;;;;;;;10.78;7.63;;;;;;;22.29;71.05;97657.98;125763;1097;22839;-81
2021/07/31 06:24:38;;;;;;;10.20;7.10;;;;;;;22.30;69.75;97667.94;125698;1097;22906;-80
2021/07/31 06:27:06;;;;;;;16.18;8.10;;;;;;;22.26;68.94;97662.23;125825;1097;22777;-80
2021/07/31 06:29:33;;;;;;;11.25;7.98;;;;;;;22.25;68.41;97670.89;125838;1096;22781;-80
2021/07/31 06:32:04;;;;;;;11.05;7.80;;;;;;;22.22;68.23;97668.79;125788;1095;22789;-80
2021/07/31 06:34:31;;;;;;;11.53;7.63;;;;;;;22.21;68.35;97675.50;125780;1096;24607;-80
2021/07/31 06:36:57;;;;;;;13.53;7.50;;;;;;;22.19;68.26;97670.30;125490;1097;22926;-80
2021/07/31 06:39:25;;;;;;;12.78;7.65;;;;;;;22.20;68.28;97666.35;125443;1097;22802;-80
2021/07/31 06:41:52;;;;;;;11.77;8.73;;;;;;;22.22;68.60;97671.56;125482;1097;27306;-80
2021/07/31 06:44:19;;;;;;;11.93;8.20;;;;;;;22.24;68.27;97672.03;125406;1096;26340;-80
2021/07/31 06:46:46;;;;;;;10.10;7.03;;;;;;;22.25;68.54;97673.66;125374;1097;22782;-80
2021/07/31 06:49:13;;;;;;;13.53;7.40;;;;;;;22.26;68.19;97669.75;125525;1096;22935;-80
2021/07/31 06:51:39;;;;;;;11.28;7.58;;;;;;;22.25;67.91;97671.69;125464;1097;24423;-80
2021/07/31 06:54:06;;;;;;;10.75;7.18;;;;;;;22.27;68.41;97676.93;125433;1096;22777;-80
2021/07/31 06:56:36;;;;;;;11.90;7.35;;;;;;;22.30;68.64;97679.03;125481;1097;22850;-80
2021/07/31 06:59:04;;;;;;;11.78;7.68;;;;;;;22.35;68.86;97687.14;125433;1096;22780;-80
2021/07/31 07:01:31;;;;;;;8.80;7.25;;;;;;;22.40;68.96;97692.48;125484;1096;26005;-80
2021/07/31 07:03:58;;;;;;;12.00;7.48;;;;;;;22.44;69.07;97693.41;125476;1096;22918;-80
2021/07/31 07:06:25;;;;;;;11.95;7.53;;;;;;;22.46;69.20;97688.32;125365;1097;22871;-80
2021/07/31 07:09:06;;;;;;;9.10;7.48;;;;;;;22.48;69.25;97702.66;125455;1097;26299;-80
2021/07/31 07:11:33;;;;;;;11.98;7.68;;;;;;;22.52;69.59;97703.61;125531;1097;26268;-80
2021/07/31 07:14:00;;;;;;;16.95;7.55;;;;;;;22.56;69.37;97712.87;125464;1096;24444;-80
2021/07/31 07:16:26;;;;;;;12.28;7.65;;;;;;;22.62;69.68;97713.45;125441;1096;22876;-80
2021/07/31 07:18:53;;;;;;;14.53;7.78;;;;;;;22.67;69.66;97715.21;125449;1096;22960;-80
2021/07/31 07:21:20;;;;;;;13.58;8.15;;;;;;;22.73;69.60;97725.76;125465;1097;23219;-80
2021/07/31 07:23:47;;;;;;;12.75;7.70;;;;;;;22.76;69.23;97724.25;125552;1097;24747;-80
2021/07/31 07:26:13;;;;;;;11.68;7.83;;;;;;;22.76;68.75;97732.58;125427;1096;27208;-80
2021/07/31 07:28:55;;;;;;;11.98;8.00;;;;;;;22.72;68.58;97732.45;125490;1097;22788;-80
2021/07/31 07:31:21;;;;;;;14.20;8.00;;;;;;;22.68;68.66;97742.63;125401;1096;24459;-80
2021/07/31 07:33:48;;;;;;;12.50;7.85;;;;;;;22.67;68.77;97745.75;125515;1096;26255;-80
2021/07/31 07:36:17;;;;;;;14.58;8.53;;;;;;;22.65;68.89;97754.41;125463;1097;22777;-80
2021/07/31 07:38:45;;;;;;;15.47;8.53;;;;;;;22.64;69.23;97768.63;125438;1096;22831;-80
2021/07/31 07:41:14;;;;;;;11.40;7.75;;;;;;;22.60;69.53;97765.72;125414;1096;26282;-80
2021/07/31 07:43:55;;;;;;;13.18;9.00;;;;;;;22.53;70.06;97768.24;125494;1097;26302;-80
2021/07/31 07:46:36;;;;;;;11.30;8.18;;;;;;;22.48;70.26;97766.48;125419;1095;25883;-80
2021/07/31 07:49:04;;;;;;;13.65;8.95;;;;;;;22.42;70.78;97775.38;125442;1097;27170;-80
2021/07/31 07:51:30;;;;;;;11.75;8.25;;;;;;;22.35;70.75;97778.69;125424;1096;22788;-80
2021/07/31 07:53:57;;;;;;;10.77;8.27;;;;;;;22.31;71.10;97783.27;125464;1096;22828;-79
2021/07/31 07:56:24;;;;;;;13.10;8.85;;;;;;;22.24;71.41;97788.52;125394;1096;22820;-79
2021/07/31 07:58:53;;;;;;;14.30;8.20;;;;;;;22.19;72.16;97784.81;125477;1096;27211;-80
2021/07/31 08:01:20;;;;;;;13.20;9.20;;;;;;;22.18;72.10;97783.17;125420;1097;22786;-79
2021/07/31 08:03:47;;;;;;;12.73;8.25;;;;;;;22.15;72.16;97783.03;125470;1097;26500;-80
2021/07/31 08:06:18;;;;;;;9.58;8.18;;;;;;;22.17;72.62;97786.31;125470;1097;22804;-80
2021/07/31 08:08:44;;;;;;;13.93;8.37;;;;;;;22.22;72.78;97790.83;125445;1096;22993;-80
2021/07/31 08:11:11;;;;;;;12.30;8.95;;;;;;;22.23;72.71;97798.02;125427;1096;22900;-80
2021/07/31 08:13:53;;;;;;;12.40;8.00;;;;;;;22.25;73.16;97799.28;125464;1096;22808;-80
2021/07/31 08:16:20;;;;;;;13.05;8.90;;;;;;;22.26;72.92;97805.66;125473;1096;22780;-80
2021/07/31 08:18:46;;;;;;;10.43;8.57;;;;;;;22.30;73.43;97798.31;125395;1097;22806;-80
2021/07/31 08:21:13;;;;;;;12.10;8.85;;;;;;;22.36;73.82;97797.77;125476;1097;22957;-80
2021/07/31 08:23:41;;;;;;;11.25;8.28;;;;;;;22.41;73.51;97796.73;125507;1095;24456;-80
2021/07/31 08:26:12;;;;;;;10.40;7.70;;;;;;;22.45;73.47;97802.42;125436;1096;26002;-80
2021/07/31 08:28:40;;;;;;;10.35;7.00;;;;;;;22.49;73.34;97806.16;125448;1097;27512;-80
2021/07/31 08:31:12;;;;;;;8.18;7.28;;;;;;;22.58;73.75;97809.66;125508;1096;22806;-80
2021/07/31 08:33:39;;;;;;;9.73;8.03;;;;;;;22.65;73.31;97793.27;125877;1097;26345;-80
2021/07/31 08:36:07;;;;;;;9.80;7.33;;;;;;;22.72;73.34;97807.40;126215;1096;22783;-80
2021/07/31 08:38:34;;;;;;;7.30;6.58;;;;;;;22.76;73.17;97801.98;125684;1096;22781;-80
2021/07/31 08:41:16;;;;;;;9.53;6.58;;;;;;;22.80;73.13;97800.13;125641;1096;22770;-80
2021/07/31 08:43:43;;;;;;;8.00;6.93;;;;;;;22.85;73.33;97799.11;126038;1096;22787;-80
2021/07/31 08:46:10;;;;;;;8.70;6.65;;;;;;;22.90;72.97;97804.45;126061;1096;22822;-80
2021/07/31 08:48:38;;;;;;;7.20;6.45;;;;;;;22.94;72.60;97803.41;126058;1095;22771;-80
2021/07/31 08:51:06;;;;;;;8.33;6.10;;;;;;;22.97;72.34;97799.16;126112;1096;22792;-80
2021/07/31 08:53:33;;;;;;;7.43;5.80;;;;;;;23.00;72.34;97797.64;125694;1096;22800;-80
2021/07/31 08:56:01;;;;;;;7.05;6.35;;;;;;;23.05;72.44;97798.26;125646;1096;22770;-80
2021/07/31 08:58:28;;;;;;;9.88;6.30;;;;;;;23.14;72.51;97795.39;126057;1096;27166;-80
2021/07/31 09:01:10;;;;;;;14.07;8.03;;;;;;;23.18;71.95;97796.34;125553;1097;22787;-80
2021/07/31 09:03:46;;;;;;;10.53;7.80;;;;;;;23.22;72.09;97800.04;126130;1096;25881;-80
2021/07/31 09:06:31;;;;;;;8.58;6.88;;;;;;;23.30;72.30;97796.36;125652;1096;22777;-81
2021/07/31 09:08:59;;;;;;;8.10;6.37;;;;;;;23.36;71.93;97793.36;125669;1097;22773;-81
2021/07/31 09:11:28;;;;;;;11.68;6.73;;;;;;;23.43;72.09;97783.28;126019;1095;22797;-81
2021/07/31 09:14:14;;;;;;;10.53;7.10;;;;;;;23.50;72.42;97786.29;125638;1096;22788;-81
2021/07/31 09:16:43;;;;;;;9.68;7.15;;;;;;;23.56;71.14;97783.28;126073;1096;22821;-81
2021/07/31 09:19:14;;;;;;;9.07;7.90;;;;;;;23.48;70.79;97779.47;125704;1096;22772;-81
2021/07/31 09:21:47;;;;;;;9.00;7.50;;;;;;;23.41;71.52;97763.37;125727;1095;22931;-81
2021/07/31 09:24:24;;;;;;;9.10;7.70;;;;;;;23.29;71.38;97766.94;126257;1095;24453;-81
2021/07/31 09:26:56;;;;;;;9.78;7.45;;;;;;;23.18;71.88;97765.78;125663;1096;22893;-82
2021/07/31 09:29:32;;;;;;;9.40;8.33;;;;;;;23.07;71.56;97757.09;125617;1097;22743;-81
2021/07/31 09:32:08;;;;;;;11.18;7.90;;;;;;;23.03;72.69;97758.88;126045;1096;28490;-81
2021/07/31 09:34:44;;;;;;;13.18;8.08;;;;;;;23.01;72.91;97755.64;126058;1096;22775;-81
2021/07/31 09:37:28;;;;;;;10.80;8.05;;;;;;;22.96;72.66;97744.76;126011;1096;24478;-81
2021/07/31 09:39:59;;;;;;;10.68;8.25;;;;;;;22.88;72.76;97743.71;126027;1096;24572;-81
2021/07/31 09:42:36;;;;;;;10.30;7.50;;;;;;;22.84;73.33;97736.41;126033;1096;26251;-81
2021/07/31 09:45:43;;;;;;;10.75;8.28;;;;;;;22.74;73.59;97732.91;126179;1096;24437;-81
2021/07/31 09:48:11;;;;;;;11.20;7.83;;;;;;;22.63;74.48;97734.52;126019;1096;22775;-81
2021/07/31 09:50:50;;;;;;;9.77;7.20;;;;;;;22.50;74.39;97733.64;126005;1095;22773;-81
2021/07/31 09:53:24;;;;;;;10.45;7.15;;;;;;;22.38;74.74;97730.83;125536;1096;22799;-81
2021/07/31 09:55:56;;;;;;;9.63;6.95;;;;;;;22.31;75.13;97738.89;126024;1096;22821;-81
2021/07/31 09:58:31;;;;;;;10.80;7.93;;;;;;;22.25;75.02;97732.71;126014;1096;25990;-81
2021/07/31 10:01:14;;;;;;;10.63;8.43;;;;;;;22.30;75.10;97734.51;126122;1095;25999;-81
2021/07/31 10:03:56;;;;;;;11.08;7.85;;;;;;;22.42;75.06;97736.53;126064;1096;27312;-81
2021/07/31 10:06:30;;;;;;;12.40;8.63;;;;;;;22.53;74.71;97732.97;125553;1096;22766;-80
2021/07/31 10:08:57;;;;;;;10.20;8.43;;;;;;;22.69;74.78;97726.78;125600;1097;25851;-80
2021/07/31 10:11:24;;;;;;;11.60;8.10;;;;;;;22.82;74.11;97736.74;126080;1096;22803;-80
2021/07/31 10:13:55;;;;;;;11.15;8.18;;;;;;;22.94;73.92;97731.22;126032;1096;27205;-80
2021/07/31 10:16:23;;;;;;;9.85;7.40;;;;;;;23.09;74.21;97728.98;126045;1096;24419;-80
2021/07/31 10:19:11;;;;;;;10.78;7.95;;;;;;;23.23;74.50;97740.55;125971;1096;22800;-81
2021/07/31 10:21:42;;;;;;;10.25;8.03;;;;;;;23.35;73.35;97728.62;125608;1097;22840;-81
2021/07/31 10:24:17;;;;;;;11.75;8.30;;;;;;;23.41;73.58;97734.75;126000;1096;26335;-81
2021/07/31 10:27:19;;;;;;;9.40;7.95;;;;;;;23.47;73.72;97736.15;125597;1096;22864;-80
2021/07/31 10:29:55;;;;;;;10.90;8.18;;;;;;;23.60;72.98;97739.73;125432;1096;26002;-81
2021/07/31 10:32:22;;;;;;;11.23;8.47;;;;;;;23.68;73.38;97736.82;125994;1096;22934;-81
2021/07/31 10:35:27;;;;;;;11.73;8.20;;;;;;;23.76;72.82;97746.22;126111;1096;26356;-81
2021/07/31 10:37:56;;;;;;;9.93;7.50;;;;;;;23.82;71.97;97742.05;125549;1097;22782;-81
2021/07/31 10:40:26;;;;;;;10.40;7.70;;;;;;;23.81;71.83;97734.05;125580;1095;22803;-81
2021/07/31 10:42:53;;;;;;;8.70;7.20;;;;;;;23.83;72.09;97734.51;125605;1096;22780;-81
2021/07/31 10:45:22;;;;;;;9.28;7.60;;;;;;;23.85;71.92;97732.19;125558;1097;25887;-81
2021/07/31 10:47:51;;;;;;;9.20;7.33;;;;;;;23.92;72.24;97724.09;125788;1096;22828;-81
2021/07/31 10:50:24;;;;;;;;;;;;;;;23.98;72.06;97717.10;126191;1096;25887;-81
2021/07/31 10:53:17;;;;;;;7.85;6.58;;;;;;;24.06;72.17;97729.23;126106;1096;24204;-81
2021/07/31 10:55:44;;;;;;;8.70;6.55;;;;;;;24.19;71.74;97721.69;126081;1096;22800;-81
2021/07/31 10:58:20;;;;;;;9.03;6.35;;;;;;;24.34;71.58;97715.34;125673;1096;22792;-81
2021/07/31 11:01:20;;;;;;;7.28;5.95;;;;;;;24.53;70.53;97713.88;125982;1096;24440;-81
2021/07/31 11:03:48;;;;;;;6.95;5.70;;;;;;;24.68;69.50;97703.96;126006;1096;22841;-81
2021/07/31 11:06:16;;;;;;;6.70;6.00;;;;;;;24.80;69.25;97701.10;125571;1096;22800;-81
2021/07/31 11:09:16;;;;;;;6.30;5.00;;;;;;;24.94;68.79;97700.67;125592;1096;25992;-81
2021/07/31 11:12:36;;;;;;;5.00;4.50;;;;;;;24.99;65.85;97689.27;125554;1096;22771;-81
2021/07/31 11:15:07;;;;;;;5.23;4.48;;;;;;;25.11;65.58;97705.89;125522;1096;22760;-81
2021/07/31 11:17:37;;;;;;;4.90;4.50;;;;;;;25.18;64.71;97705.27;125818;1096;22860;-81
2021/07/31 11:20:33;;;;;;;6.63;4.18;;;;;;;25.27;64.67;97705.91;125778;1095;23249;-81
2021/07/31 11:23:06;;;;;;;5.05;4.53;;;;;;;25.37;64.55;97708.16;126118;1096;24419;-81
2021/07/31 11:25:47;;;;;;;5.20;4.70;;;;;;;25.50;63.79;97708.84;125526;1097;22975;-81
2021/07/31 11:28:15;;;;;;;6.43;4.77;;;;;;;25.61;62.44;97711.08;125510;1097;26487;-81
2021/07/31 11:30:47;;;;;;;5.25;4.53;;;;;;;25.65;61.96;97701.61;125626;1096;27334;-81
2021/07/31 11:33:21;;;;;;;5.35;4.45;;;;;;;25.68;62.42;97697.30;126074;1096;22663;-81
2021/07/31 11:35:51;;;;;;;4.45;4.00;;;;;;;25.69;61.92;97696.94;126151;1096;23433;-81
2021/07/31 11:38:35;;;;;;;5.18;4.60;;;;;;;25.76;61.38;97707.42;125659;1096;27195;-81